sensor_id;sensor_type;location;lat;lon;timestamp;P1;durP1;ratioP1;P2;durP2;ratioP2
22622;SDS011;11478;51.094;7.030;2023-02-13T00:00:28;19.42;;;12.23;;
22622;SDS011;11478;51.094;7.030;2023-02-13T00:02:54;19.85;;;12.75;;
22622;SDS011;11478;51.094;7.030;2023-02-13T00:05:20;18.35;;;11.95;;
22622;SDS011;11478;51.094;7.030;2023-02-13T00:07:46;17.15;;;12.15;;
22622;SDS011;11478;51.094;7.030;2023-02-13T00:15:12;16.38;;;11.15;;
22622;SDS011;11478;51.094;7.030;2023-02-13T00:17:39;19.45;;;12.68;;
22622;SDS011;11478;51.094;7.030;2023-02-13T00:22:35;18.35;;;12.40;;
22622;SDS011;11478;51.094;7.030;2023-02-13T00:25:12;20.15;;;13.32;;
22622;SDS011;11478;51.094;7.030;2023-02-13T00:27:38;18.50;;;12.50;;
22622;SDS011;11478;51.094;7.030;2023-02-13T00:30:04;22.08;;;12.98;;
22622;SDS011;11478;51.094;7.030;2023-02-13T00:32:31;19.45;;;12.70;;
22622;SDS011;11478;51.094;7.030;2023-02-13T00:35:04;20.17;;;12.68;;
22622;SDS011;11478;51.094;7.030;2023-02-13T00:37:30;19.17;;;13.07;;
22622;SDS011;11478;51.094;7.030;2023-02-13T00:42:34;20.10;;;13.45;;
22622;SDS011;11478;51.094;7.030;2023-02-13T00:45:04;18.27;;;12.05;;
22622;SDS011;11478;51.094;7.030;2023-02-13T00:47:30;20.35;;;13.05;;
22622;SDS011;11478;51.094;7.030;2023-02-13T00:49:57;17.08;;;12.05;;
22622;SDS011;11478;51.094;7.030;2023-02-13T00:52:23;22.00;;;13.60;;
22622;SDS011;11478;51.094;7.030;2023-02-13T00:54:51;20.30;;;13.82;;
22622;SDS011;11478;51.094;7.030;2023-02-13T00:57:16;18.67;;;12.70;;
22622;SDS011;11478;51.094;7.030;2023-02-13T00:59:44;20.05;;;12.30;;
22622;SDS011;11478;51.094;7.030;2023-02-13T01:02:10;20.95;;;13.35;;
22622;SDS011;11478;51.094;7.030;2023-02-13T01:04:36;20.33;;;12.85;;
22622;SDS011;11478;51.094;7.030;2023-02-13T01:07:02;18.08;;;12.45;;
22622;SDS011;11478;51.094;7.030;2023-02-13T01:09:30;20.52;;;13.18;;
22622;SDS011;11478;51.094;7.030;2023-02-13T01:11:56;19.77;;;13.43;;
22622;SDS011;11478;51.094;7.030;2023-02-13T01:14:21;20.17;;;12.85;;
22622;SDS011;11478;51.094;7.030;2023-02-13T01:16:47;20.52;;;13.50;;
22622;SDS011;11478;51.094;7.030;2023-02-13T01:19:14;19.90;;;13.55;;
22622;SDS011;11478;51.094;7.030;2023-02-13T01:21:41;19.83;;;12.90;;
22622;SDS011;11478;51.094;7.030;2023-02-13T01:24:07;18.73;;;12.48;;
22622;SDS011;11478;51.094;7.030;2023-02-13T01:26:32;21.77;;;13.05;;
22622;SDS011;11478;51.094;7.030;2023-02-13T01:29:02;20.35;;;12.73;;
22622;SDS011;11478;51.094;7.030;2023-02-13T01:31:28;21.83;;;13.55;;
22622;SDS011;11478;51.094;7.030;2023-02-13T01:33:58;17.48;;;11.70;;
22622;SDS011;11478;51.094;7.030;2023-02-13T01:36:24;23.50;;;12.10;;
22622;SDS011;11478;51.094;7.030;2023-02-13T01:38:55;18.52;;;12.63;;
22622;SDS011;11478;51.094;7.030;2023-02-13T01:41:22;21.98;;;12.80;;
22622;SDS011;11478;51.094;7.030;2023-02-13T01:46:34;18.35;;;11.05;;
22622;SDS011;11478;51.094;7.030;2023-02-13T01:49:16;19.02;;;12.40;;
22622;SDS011;11478;51.094;7.030;2023-02-13T01:51:47;17.42;;;11.60;;
22622;SDS011;11478;51.094;7.030;2023-02-13T01:54:21;17.58;;;11.20;;
22622;SDS011;11478;51.094;7.030;2023-02-13T01:56:56;15.32;;;10.90;;
22622;SDS011;11478;51.094;7.030;2023-02-13T01:59:41;17.30;;;10.90;;
22622;SDS011;11478;51.094;7.030;2023-02-13T02:02:12;16.08;;;10.50;;
22622;SDS011;11478;51.094;7.030;2023-02-13T02:04:38;18.05;;;10.73;;
22622;SDS011;11478;51.094;7.030;2023-02-13T02:07:09;18.95;;;10.88;;
22622;SDS011;11478;51.094;7.030;2023-02-13T02:09:39;16.33;;;10.70;;
22622;SDS011;11478;51.094;7.030;2023-02-13T02:12:26;15.02;;;10.02;;
22622;SDS011;11478;51.094;7.030;2023-02-13T02:18:08;16.00;;;10.32;;
22622;SDS011;11478;51.094;7.030;2023-02-13T02:32:56;15.65;;;9.98;;
22622;SDS011;11478;51.094;7.030;2023-02-13T02:44:16;14.50;;;8.85;;
22622;SDS011;11478;51.094;7.030;2023-02-13T02:47:26;14.68;;;9.82;;
22622;SDS011;11478;51.094;7.030;2023-02-13T02:50:32;15.18;;;10.35;;
22622;SDS011;11478;51.094;7.030;2023-02-13T02:55:36;15.00;;;10.40;;
22622;SDS011;11478;51.094;7.030;2023-02-13T02:58:18;14.35;;;9.48;;
22622;SDS011;11478;51.094;7.030;2023-02-13T03:01:22;16.30;;;10.52;;
22622;SDS011;11478;51.094;7.030;2023-02-13T03:04:18;14.63;;;10.35;;
22622;SDS011;11478;51.094;7.030;2023-02-13T03:07:16;17.73;;;11.10;;
22622;SDS011;11478;51.094;7.030;2023-02-13T03:09:48;15.88;;;10.57;;
22622;SDS011;11478;51.094;7.030;2023-02-13T03:12:54;14.25;;;10.20;;
22622;SDS011;11478;51.094;7.030;2023-02-13T03:15:45;15.80;;;10.73;;
22622;SDS011;11478;51.094;7.030;2023-02-13T03:24:44;15.95;;;11.27;;
22622;SDS011;11478;51.094;7.030;2023-02-13T03:27:19;15.25;;;11.15;;
22622;SDS011;11478;51.094;7.030;2023-02-13T03:30:17;16.98;;;11.35;;
22622;SDS011;11478;51.094;7.030;2023-02-13T03:47:45;16.25;;;11.48;;
22622;SDS011;11478;51.094;7.030;2023-02-13T03:50:23;17.88;;;11.73;;
22622;SDS011;11478;51.094;7.030;2023-02-13T03:52:58;16.02;;;11.23;;
22622;SDS011;11478;51.094;7.030;2023-02-13T03:55:33;15.18;;;11.70;;
22622;SDS011;11478;51.094;7.030;2023-02-13T03:58:40;16.80;;;11.35;;
22622;SDS011;11478;51.094;7.030;2023-02-13T04:01:27;16.35;;;11.50;;
22622;SDS011;11478;51.094;7.030;2023-02-13T04:04:04;17.58;;;11.75;;
22622;SDS011;11478;51.094;7.030;2023-02-13T04:06:46;16.48;;;11.82;;
22622;SDS011;11478;51.094;7.030;2023-02-13T04:09:18;17.50;;;11.40;;
22622;SDS011;11478;51.094;7.030;2023-02-13T04:14:43;15.70;;;10.93;;
22622;SDS011;11478;51.094;7.030;2023-02-13T04:17:40;18.95;;;12.57;;
22622;SDS011;11478;51.094;7.030;2023-02-13T04:20:11;18.90;;;12.10;;
22622;SDS011;11478;51.094;7.030;2023-02-13T04:22:41;15.32;;;11.68;;
22622;SDS011;11478;51.094;7.030;2023-02-13T04:25:11;15.95;;;11.48;;
22622;SDS011;11478;51.094;7.030;2023-02-13T04:27:39;15.80;;;11.80;;
22622;SDS011;11478;51.094;7.030;2023-02-13T04:30:05;16.25;;;12.25;;
22622;SDS011;11478;51.094;7.030;2023-02-13T04:32:33;15.60;;;11.63;;
22622;SDS011;11478;51.094;7.030;2023-02-13T04:34:59;17.70;;;12.20;;
22622;SDS011;11478;51.094;7.030;2023-02-13T04:37:36;17.13;;;12.52;;
22622;SDS011;11478;51.094;7.030;2023-02-13T04:40:02;16.17;;;12.25;;
22622;SDS011;11478;51.094;7.030;2023-02-13T04:42:29;17.40;;;13.18;;
22622;SDS011;11478;51.094;7.030;2023-02-13T04:44:55;17.88;;;13.15;;
22622;SDS011;11478;51.094;7.030;2023-02-13T04:47:21;18.05;;;13.50;;
22622;SDS011;11478;51.094;7.030;2023-02-13T04:49:47;18.25;;;13.35;;
22622;SDS011;11478;51.094;7.030;2023-02-13T04:52:13;19.13;;;13.70;;
22622;SDS011;11478;51.094;7.030;2023-02-13T04:54:39;19.77;;;13.57;;
22622;SDS011;11478;51.094;7.030;2023-02-13T04:57:07;17.50;;;13.10;;
22622;SDS011;11478;51.094;7.030;2023-02-13T04:59:33;18.63;;;13.73;;
22622;SDS011;11478;51.094;7.030;2023-02-13T05:01:59;18.80;;;13.38;;
22622;SDS011;11478;51.094;7.030;2023-02-13T05:04:25;18.77;;;13.70;;
22622;SDS011;11478;51.094;7.030;2023-02-13T05:06:51;18.92;;;13.10;;
22622;SDS011;11478;51.094;7.030;2023-02-13T05:11:45;18.05;;;13.52;;
22622;SDS011;11478;51.094;7.030;2023-02-13T05:14:14;21.00;;;13.30;;
22622;SDS011;11478;51.094;7.030;2023-02-13T05:16:40;17.30;;;13.35;;
22622;SDS011;11478;51.094;7.030;2023-02-13T05:19:17;17.35;;;13.02;;
22622;SDS011;11478;51.094;7.030;2023-02-13T05:21:42;18.70;;;14.32;;
22622;SDS011;11478;51.094;7.030;2023-02-13T05:24:29;20.65;;;14.02;;
22622;SDS011;11478;51.094;7.030;2023-02-13T05:26:55;18.17;;;13.55;;
22622;SDS011;11478;51.094;7.030;2023-02-13T05:29:22;18.75;;;12.98;;
22622;SDS011;11478;51.094;7.030;2023-02-13T05:31:54;15.65;;;11.90;;
22622;SDS011;11478;51.094;7.030;2023-02-13T05:34:23;18.75;;;13.35;;
22622;SDS011;11478;51.094;7.030;2023-02-13T05:36:50;16.98;;;13.07;;
22622;SDS011;11478;51.094;7.030;2023-02-13T05:39:19;18.98;;;13.57;;
22622;SDS011;11478;51.094;7.030;2023-02-13T05:41:46;17.80;;;12.82;;
22622;SDS011;11478;51.094;7.030;2023-02-13T05:44:12;19.92;;;13.23;;
22622;SDS011;11478;51.094;7.030;2023-02-13T05:46:39;18.73;;;12.50;;
22622;SDS011;11478;51.094;7.030;2023-02-13T05:51:36;15.75;;;11.57;;
22622;SDS011;11478;51.094;7.030;2023-02-13T05:54:02;16.83;;;11.25;;
22622;SDS011;11478;51.094;7.030;2023-02-13T05:56:28;16.83;;;12.35;;
22622;SDS011;11478;51.094;7.030;2023-02-13T06:01:24;15.73;;;11.48;;
22622;SDS011;11478;51.094;7.030;2023-02-13T06:03:50;18.33;;;12.85;;
22622;SDS011;11478;51.094;7.030;2023-02-13T06:06:16;17.58;;;12.45;;
22622;SDS011;11478;51.094;7.030;2023-02-13T06:08:42;20.25;;;14.70;;
22622;SDS011;11478;51.094;7.030;2023-02-13T06:11:08;22.48;;;16.35;;
22622;SDS011;11478;51.094;7.030;2023-02-13T06:13:34;22.67;;;15.05;;
22622;SDS011;11478;51.094;7.030;2023-02-13T06:16:01;20.17;;;14.38;;
22622;SDS011;11478;51.094;7.030;2023-02-13T06:18:27;22.50;;;14.70;;
22622;SDS011;11478;51.094;7.030;2023-02-13T06:20:57;24.67;;;16.60;;
22622;SDS011;11478;51.094;7.030;2023-02-13T06:23:24;19.20;;;14.07;;
22622;SDS011;11478;51.094;7.030;2023-02-13T06:25:49;18.40;;;12.98;;
22622;SDS011;11478;51.094;7.030;2023-02-13T06:28:15;21.58;;;14.20;;
22622;SDS011;11478;51.094;7.030;2023-02-13T06:33:11;20.58;;;12.63;;
22622;SDS011;11478;51.094;7.030;2023-02-13T06:35:40;19.33;;;12.73;;
22622;SDS011;11478;51.094;7.030;2023-02-13T06:38:06;18.23;;;13.00;;
22622;SDS011;11478;51.094;7.030;2023-02-13T06:40:32;20.00;;;13.30;;
22622;SDS011;11478;51.094;7.030;2023-02-13T06:42:57;22.20;;;14.85;;
22622;SDS011;11478;51.094;7.030;2023-02-13T06:45:23;22.30;;;13.88;;
22622;SDS011;11478;51.094;7.030;2023-02-13T06:47:49;22.38;;;14.50;;
22622;SDS011;11478;51.094;7.030;2023-02-13T06:50:23;20.15;;;13.45;;
22622;SDS011;11478;51.094;7.030;2023-02-13T06:52:49;18.83;;;12.77;;
22622;SDS011;11478;51.094;7.030;2023-02-13T06:55:17;21.90;;;14.40;;
22622;SDS011;11478;51.094;7.030;2023-02-13T06:57:45;21.95;;;14.93;;
22622;SDS011;11478;51.094;7.030;2023-02-13T07:00:14;24.02;;;14.25;;
22622;SDS011;11478;51.094;7.030;2023-02-13T07:02:41;21.88;;;14.90;;
22622;SDS011;11478;51.094;7.030;2023-02-13T07:05:09;25.30;;;15.40;;
22622;SDS011;11478;51.094;7.030;2023-02-13T07:07:36;23.95;;;15.50;;
22622;SDS011;11478;51.094;7.030;2023-02-13T07:10:05;25.60;;;15.52;;
22622;SDS011;11478;51.094;7.030;2023-02-13T07:12:32;22.05;;;14.10;;
22622;SDS011;11478;51.094;7.030;2023-02-13T07:15:00;25.33;;;15.23;;
22622;SDS011;11478;51.094;7.030;2023-02-13T07:17:26;22.75;;;15.13;;
22622;SDS011;11478;51.094;7.030;2023-02-13T07:22:22;24.08;;;15.10;;
22622;SDS011;11478;51.094;7.030;2023-02-13T07:27:18;25.15;;;16.00;;
22622;SDS011;11478;51.094;7.030;2023-02-13T07:29:44;25.92;;;15.82;;
22622;SDS011;11478;51.094;7.030;2023-02-13T07:32:10;27.88;;;17.15;;
22622;SDS011;11478;51.094;7.030;2023-02-13T07:34:36;26.05;;;15.55;;
22622;SDS011;11478;51.094;7.030;2023-02-13T07:37:01;26.90;;;16.27;;
22622;SDS011;11478;51.094;7.030;2023-02-13T07:39:27;27.15;;;16.52;;
22622;SDS011;11478;51.094;7.030;2023-02-13T07:41:53;28.73;;;17.73;;
22622;SDS011;11478;51.094;7.030;2023-02-13T07:44:20;31.02;;;16.58;;
22622;SDS011;11478;51.094;7.030;2023-02-13T07:46:45;28.00;;;17.00;;
22622;SDS011;11478;51.094;7.030;2023-02-13T07:49:11;30.75;;;17.67;;
22622;SDS011;11478;51.094;7.030;2023-02-13T07:51:37;28.73;;;17.15;;
22622;SDS011;11478;51.094;7.030;2023-02-13T07:54:03;32.22;;;17.98;;
22622;SDS011;11478;51.094;7.030;2023-02-13T07:56:29;28.60;;;16.33;;
22622;SDS011;11478;51.094;7.030;2023-02-13T07:58:56;32.65;;;18.55;;
22622;SDS011;11478;51.094;7.030;2023-02-13T08:01:23;31.48;;;17.77;;
22622;SDS011;11478;51.094;7.030;2023-02-13T08:03:49;33.35;;;18.20;;
22622;SDS011;11478;51.094;7.030;2023-02-13T08:06:16;28.27;;;16.63;;
22622;SDS011;11478;51.094;7.030;2023-02-13T08:08:43;29.98;;;17.17;;
22622;SDS011;11478;51.094;7.030;2023-02-13T08:14:21;31.08;;;17.65;;
22622;SDS011;11478;51.094;7.030;2023-02-13T08:16:48;29.30;;;16.77;;
22622;SDS011;11478;51.094;7.030;2023-02-13T08:19:14;31.20;;;18.02;;
22622;SDS011;11478;51.094;7.030;2023-02-13T08:21:42;29.27;;;17.35;;
22622;SDS011;11478;51.094;7.030;2023-02-13T08:24:08;30.02;;;17.70;;
22622;SDS011;11478;51.094;7.030;2023-02-13T08:26:34;29.23;;;18.35;;
22622;SDS011;11478;51.094;7.030;2023-02-13T08:29:00;31.90;;;18.60;;
22622;SDS011;11478;51.094;7.030;2023-02-13T08:31:28;29.52;;;18.50;;
22622;SDS011;11478;51.094;7.030;2023-02-13T08:33:55;35.45;;;18.83;;
22622;SDS011;11478;51.094;7.030;2023-02-13T08:36:25;31.52;;;17.55;;
22622;SDS011;11478;51.094;7.030;2023-02-13T08:38:51;32.47;;;18.58;;
22622;SDS011;11478;51.094;7.030;2023-02-13T08:41:17;29.88;;;16.38;;
22622;SDS011;11478;51.094;7.030;2023-02-13T08:43:45;29.52;;;17.67;;
22622;SDS011;11478;51.094;7.030;2023-02-13T08:46:12;28.23;;;16.88;;
22622;SDS011;11478;51.094;7.030;2023-02-13T08:48:37;21.42;;;14.77;;
22622;SDS011;11478;51.094;7.030;2023-02-13T08:51:08;19.92;;;13.10;;
22622;SDS011;11478;51.094;7.030;2023-02-13T08:53:36;20.67;;;14.02;;
22622;SDS011;11478;51.094;7.030;2023-02-13T08:56:03;20.23;;;13.23;;
22622;SDS011;11478;51.094;7.030;2023-02-13T08:58:30;16.35;;;11.85;;
22622;SDS011;11478;51.094;7.030;2023-02-13T09:00:56;19.23;;;12.30;;
22622;SDS011;11478;51.094;7.030;2023-02-13T09:03:23;17.13;;;12.35;;
22622;SDS011;11478;51.094;7.030;2023-02-13T09:05:49;15.15;;;11.10;;
22622;SDS011;11478;51.094;7.030;2023-02-13T09:08:16;19.08;;;11.40;;
22622;SDS011;11478;51.094;7.030;2023-02-13T09:10:42;15.60;;;11.00;;
22622;SDS011;11478;51.094;7.030;2023-02-13T09:18:33;15.52;;;11.18;;
22622;SDS011;11478;51.094;7.030;2023-02-13T09:21:03;15.13;;;10.68;;
22622;SDS011;11478;51.094;7.030;2023-02-13T09:23:36;14.43;;;10.18;;
22622;SDS011;11478;51.094;7.030;2023-02-13T09:26:04;11.98;;;9.43;;
22622;SDS011;11478;51.094;7.030;2023-02-13T09:28:33;12.23;;;9.52;;
22622;SDS011;11478;51.094;7.030;2023-02-13T09:30:59;13.80;;;9.43;;
22622;SDS011;11478;51.094;7.030;2023-02-13T09:33:39;12.88;;;9.40;;
22622;SDS011;11478;51.094;7.030;2023-02-13T09:36:06;14.80;;;9.88;;
22622;SDS011;11478;51.094;7.030;2023-02-13T09:38:33;11.73;;;9.40;;
22622;SDS011;11478;51.094;7.030;2023-02-13T09:41:00;12.68;;;9.20;;
22622;SDS011;11478;51.094;7.030;2023-02-13T09:43:36;11.13;;;8.32;;
22622;SDS011;11478;51.094;7.030;2023-02-13T09:46:12;11.82;;;8.95;;
22622;SDS011;11478;51.094;7.030;2023-02-13T09:48:44;12.90;;;8.88;;
22622;SDS011;11478;51.094;7.030;2023-02-13T09:51:13;14.30;;;10.15;;
22622;SDS011;11478;51.094;7.030;2023-02-13T09:53:44;12.43;;;8.82;;
22622;SDS011;11478;51.094;7.030;2023-02-13T09:57:11;15.63;;;9.15;;
22622;SDS011;11478;51.094;7.030;2023-02-13T10:18:56;14.27;;;8.20;;
22622;SDS011;11478;51.094;7.030;2023-02-13T10:22:00;10.82;;;7.90;;
22622;SDS011;11478;51.094;7.030;2023-02-13T10:24:30;10.48;;;8.25;;
22622;SDS011;11478;51.094;7.030;2023-02-13T10:35:57;10.93;;;8.07;;
22622;SDS011;11478;51.094;7.030;2023-02-13T10:39:33;10.45;;;7.72;;
22622;SDS011;11478;51.094;7.030;2023-02-13T10:41:50;10.45;;;8.10;;
22622;SDS011;11478;51.094;7.030;2023-02-13T10:50:44;11.88;;;7.80;;
22622;SDS011;11478;51.094;7.030;2023-02-13T10:58:54;11.10;;;8.40;;
22622;SDS011;11478;51.094;7.030;2023-02-13T11:04:07;11.80;;;7.75;;
22622;SDS011;11478;51.094;7.030;2023-02-13T11:06:45;12.55;;;7.75;;
22622;SDS011;11478;51.094;7.030;2023-02-13T11:09:16;9.85;;;7.55;;
22622;SDS011;11478;51.094;7.030;2023-02-13T11:11:42;9.80;;;7.47;;
22622;SDS011;11478;51.094;7.030;2023-02-13T11:14:13;10.25;;;7.40;;
22622;SDS011;11478;51.094;7.030;2023-02-13T11:19:50;12.13;;;7.70;;
22622;SDS011;11478;51.094;7.030;2023-02-13T11:22:34;10.40;;;7.53;;
22622;SDS011;11478;51.094;7.030;2023-02-13T11:25:04;11.65;;;6.90;;
22622;SDS011;11478;51.094;7.030;2023-02-13T11:27:37;10.70;;;6.68;;
22622;SDS011;11478;51.094;7.030;2023-02-13T11:30:50;10.13;;;7.18;;
22622;SDS011;11478;51.094;7.030;2023-02-13T11:33:08;10.00;;;7.25;;
22622;SDS011;11478;51.094;7.030;2023-02-13T11:35:44;9.02;;;6.45;;
22622;SDS011;11478;51.094;7.030;2023-02-13T11:40:43;8.45;;;6.18;;
22622;SDS011;11478;51.094;7.030;2023-02-13T11:43:42;7.72;;;5.50;;
22622;SDS011;11478;51.094;7.030;2023-02-13T11:46:45;7.97;;;5.38;;
22622;SDS011;11478;51.094;7.030;2023-02-13T11:49:23;9.25;;;6.13;;
22622;SDS011;11478;51.094;7.030;2023-02-13T11:51:56;8.52;;;6.10;;
22622;SDS011;11478;51.094;7.030;2023-02-13T11:59:43;7.82;;;5.60;;
22622;SDS011;11478;51.094;7.030;2023-02-13T12:04:41;8.02;;;5.80;;
22622;SDS011;11478;51.094;7.030;2023-02-13T12:07:29;7.45;;;5.75;;
22622;SDS011;11478;51.094;7.030;2023-02-13T12:15:43;10.65;;;6.03;;
22622;SDS011;11478;51.094;7.030;2023-02-13T12:27:25;8.75;;;5.88;;
22622;SDS011;11478;51.094;7.030;2023-02-13T12:29:55;8.40;;;5.95;;
22622;SDS011;11478;51.094;7.030;2023-02-13T12:32:40;8.95;;;5.72;;
22622;SDS011;11478;51.094;7.030;2023-02-13T12:50:05;7.40;;;5.30;;
22622;SDS011;11478;51.094;7.030;2023-02-13T12:55:01;5.57;;;4.38;;
22622;SDS011;11478;51.094;7.030;2023-02-13T13:19:35;9.25;;;4.50;;
22622;SDS011;11478;51.094;7.030;2023-02-13T13:27:35;7.65;;;4.03;;
22622;SDS011;11478;51.094;7.030;2023-02-13T13:32:51;5.60;;;4.60;;
22622;SDS011;11478;51.094;7.030;2023-02-13T13:35:22;6.82;;;4.57;;
22622;SDS011;11478;51.094;7.030;2023-02-13T13:38:32;4.68;;;3.58;;
22622;SDS011;11478;51.094;7.030;2023-02-13T13:43:31;6.05;;;4.15;;
22622;SDS011;11478;51.094;7.030;2023-02-13T13:51:31;5.65;;;3.55;;
22622;SDS011;11478;51.094;7.030;2023-02-13T14:07:36;5.00;;;3.80;;
22622;SDS011;11478;51.094;7.030;2023-02-13T14:10:05;5.03;;;3.17;;
22622;SDS011;11478;51.094;7.030;2023-02-13T14:12:48;7.95;;;3.50;;
22622;SDS011;11478;51.094;7.030;2023-02-13T14:20:40;6.75;;;2.83;;
22622;SDS011;11478;51.094;7.030;2023-02-13T14:41:56;4.80;;;2.75;;
22622;SDS011;11478;51.094;7.030;2023-02-13T14:47:29;5.20;;;2.65;;
22622;SDS011;11478;51.094;7.030;2023-02-13T14:49:59;4.55;;;2.33;;
22622;SDS011;11478;51.094;7.030;2023-02-13T14:52:36;5.75;;;2.10;;
22622;SDS011;11478;51.094;7.030;2023-02-13T14:55:12;2.92;;;2.38;;
22622;SDS011;11478;51.094;7.030;2023-02-13T14:58:10;3.47;;;2.10;;
22622;SDS011;11478;51.094;7.030;2023-02-13T15:00:40;3.80;;;1.90;;
22622;SDS011;11478;51.094;7.030;2023-02-13T15:19:46;2.42;;;1.73;;
22622;SDS011;11478;51.094;7.030;2023-02-13T15:22:21;2.83;;;1.60;;
22622;SDS011;11478;51.094;7.030;2023-02-13T15:24:53;4.13;;;1.73;;
22622;SDS011;11478;51.094;7.030;2023-02-13T15:27:20;5.00;;;1.90;;
22622;SDS011;11478;51.094;7.030;2023-02-13T15:30:01;1.95;;;1.55;;
22622;SDS011;11478;51.094;7.030;2023-02-13T15:32:33;5.65;;;1.80;;
22622;SDS011;11478;51.094;7.030;2023-02-13T15:40:29;1.58;;;1.30;;
22622;SDS011;11478;51.094;7.030;2023-02-13T15:42:57;2.00;;;1.20;;
22622;SDS011;11478;51.094;7.030;2023-02-13T15:45:25;4.05;;;1.65;;
22622;SDS011;11478;51.094;7.030;2023-02-13T15:47:53;2.85;;;1.40;;
22622;SDS011;11478;51.094;7.030;2023-02-13T15:52:57;2.58;;;1.52;;
22622;SDS011;11478;51.094;7.030;2023-02-13T15:55:33;6.40;;;1.73;;
22622;SDS011;11478;51.094;7.030;2023-02-13T15:58:17;2.00;;;1.60;;
22622;SDS011;11478;51.094;7.030;2023-02-13T16:00:53;3.28;;;1.83;;
22622;SDS011;11478;51.094;7.030;2023-02-13T16:03:20;5.50;;;2.20;;
22622;SDS011;11478;51.094;7.030;2023-02-13T16:06:02;4.25;;;2.70;;
22622;SDS011;11478;51.094;7.030;2023-02-13T16:17:49;8.38;;;1.73;;
22622;SDS011;11478;51.094;7.030;2023-02-13T16:22:53;2.75;;;1.70;;
22622;SDS011;11478;51.094;7.030;2023-02-13T16:25:39;5.93;;;1.58;;
22622;SDS011;11478;51.094;7.030;2023-02-13T16:28:21;1.77;;;1.42;;
22622;SDS011;11478;51.094;7.030;2023-02-13T16:30:57;3.72;;;1.60;;
22622;SDS011;11478;51.094;7.030;2023-02-13T16:33:37;4.78;;;1.90;;
22622;SDS011;11478;51.094;7.030;2023-02-13T16:36:16;4.63;;;2.10;;
22622;SDS011;11478;51.094;7.030;2023-02-13T16:38:52;4.53;;;1.60;;
22622;SDS011;11478;51.094;7.030;2023-02-13T16:46:30;3.65;;;2.10;;
22622;SDS011;11478;51.094;7.030;2023-02-13T16:51:31;7.18;;;2.60;;
22622;SDS011;11478;51.094;7.030;2023-02-13T16:53:57;2.58;;;2.15;;
22622;SDS011;11478;51.094;7.030;2023-02-13T16:56:35;4.97;;;2.45;;
22622;SDS011;11478;51.094;7.030;2023-02-13T16:59:22;5.72;;;2.58;;
22622;SDS011;11478;51.094;7.030;2023-02-13T17:04:46;5.00;;;2.08;;
22622;SDS011;11478;51.094;7.030;2023-02-13T17:12:47;5.22;;;1.70;;
22622;SDS011;11478;51.094;7.030;2023-02-13T17:15:17;4.82;;;1.95;;
22622;SDS011;11478;51.094;7.030;2023-02-13T17:17:49;3.13;;;1.98;;
22622;SDS011;11478;51.094;7.030;2023-02-13T17:20:19;4.82;;;1.90;;
22622;SDS011;11478;51.094;7.030;2023-02-13T17:22:56;2.80;;;2.00;;
22622;SDS011;11478;51.094;7.030;2023-02-13T17:27:55;3.33;;;1.95;;
22622;SDS011;11478;51.094;7.030;2023-02-13T17:35:38;5.13;;;1.95;;
22622;SDS011;11478;51.094;7.030;2023-02-13T17:38:04;5.72;;;1.70;;
22622;SDS011;11478;51.094;7.030;2023-02-13T17:40:31;6.50;;;2.08;;
22622;SDS011;11478;51.094;7.030;2023-02-13T17:42:58;6.95;;;2.30;;
22622;SDS011;11478;51.094;7.030;2023-02-13T17:45:27;3.88;;;2.10;;
22622;SDS011;11478;51.094;7.030;2023-02-13T17:47:57;5.95;;;2.22;;
22622;SDS011;11478;51.094;7.030;2023-02-13T17:50:24;5.55;;;2.40;;
22622;SDS011;11478;51.094;7.030;2023-02-13T17:55:29;4.60;;;2.50;;
22622;SDS011;11478;51.094;7.030;2023-02-13T17:58:01;5.47;;;2.75;;
22622;SDS011;11478;51.094;7.030;2023-02-13T18:00:28;6.13;;;2.60;;
22622;SDS011;11478;51.094;7.030;2023-02-13T18:02:57;4.82;;;2.95;;
22622;SDS011;11478;51.094;7.030;2023-02-13T18:05:25;4.15;;;2.90;;
22622;SDS011;11478;51.094;7.030;2023-02-13T18:07:57;3.75;;;2.60;;
22622;SDS011;11478;51.094;7.030;2023-02-13T18:10:27;7.15;;;3.03;;
22622;SDS011;11478;51.094;7.030;2023-02-13T18:12:55;4.50;;;2.85;;
22622;SDS011;11478;51.094;7.030;2023-02-13T18:15:28;4.40;;;2.97;;
22622;SDS011;11478;51.094;7.030;2023-02-13T18:17:58;6.60;;;2.95;;
22622;SDS011;11478;51.094;7.030;2023-02-13T18:20:24;4.03;;;2.70;;
22622;SDS011;11478;51.094;7.030;2023-02-13T18:22:52;6.40;;;2.75;;
22622;SDS011;11478;51.094;7.030;2023-02-13T18:25:18;5.75;;;3.60;;
22622;SDS011;11478;51.094;7.030;2023-02-13T18:27:46;6.25;;;3.40;;
22622;SDS011;11478;51.094;7.030;2023-02-13T18:30:13;4.30;;;2.70;;
22622;SDS011;11478;51.094;7.030;2023-02-13T18:32:42;6.25;;;3.10;;
22622;SDS011;11478;51.094;7.030;2023-02-13T18:35:08;11.02;;;2.92;;
22622;SDS011;11478;51.094;7.030;2023-02-13T18:37:34;4.95;;;2.92;;
22622;SDS011;11478;51.094;7.030;2023-02-13T18:40:00;11.48;;;2.97;;
22622;SDS011;11478;51.094;7.030;2023-02-13T18:42:26;4.72;;;2.67;;
22622;SDS011;11478;51.094;7.030;2023-02-13T18:44:55;6.13;;;2.90;;
22622;SDS011;11478;51.094;7.030;2023-02-13T18:47:21;6.25;;;3.70;;
22622;SDS011;11478;51.094;7.030;2023-02-13T18:49:46;6.05;;;3.50;;
22622;SDS011;11478;51.094;7.030;2023-02-13T18:52:12;5.85;;;3.20;;
22622;SDS011;11478;51.094;7.030;2023-02-13T18:54:38;5.40;;;3.47;;
22622;SDS011;11478;51.094;7.030;2023-02-13T18:57:04;7.22;;;3.63;;
22622;SDS011;11478;51.094;7.030;2023-02-13T18:59:30;8.05;;;3.80;;
22622;SDS011;11478;51.094;7.030;2023-02-13T19:01:56;5.05;;;3.85;;
22622;SDS011;11478;51.094;7.030;2023-02-13T19:04:27;7.55;;;4.18;;
22622;SDS011;11478;51.094;7.030;2023-02-13T19:06:52;8.15;;;4.15;;
22622;SDS011;11478;51.094;7.030;2023-02-13T19:09:19;7.10;;;4.28;;
22622;SDS011;11478;51.094;7.030;2023-02-13T19:11:45;7.13;;;4.85;;
22622;SDS011;11478;51.094;7.030;2023-02-13T19:14:12;7.22;;;4.70;;
22622;SDS011;11478;51.094;7.030;2023-02-13T19:16:39;7.45;;;4.80;;
22622;SDS011;11478;51.094;7.030;2023-02-13T19:19:06;10.20;;;5.28;;
22622;SDS011;11478;51.094;7.030;2023-02-13T19:21:33;7.80;;;4.85;;
22622;SDS011;11478;51.094;7.030;2023-02-13T19:24:03;9.10;;;5.07;;
22622;SDS011;11478;51.094;7.030;2023-02-13T19:26:30;10.90;;;5.53;;
22622;SDS011;11478;51.094;7.030;2023-02-13T19:29:09;10.60;;;5.22;;
22622;SDS011;11478;51.094;7.030;2023-02-13T19:31:35;8.50;;;5.50;;
22622;SDS011;11478;51.094;7.030;2023-02-13T19:34:01;8.30;;;4.82;;
22622;SDS011;11478;51.094;7.030;2023-02-13T19:36:28;9.10;;;5.18;;
22622;SDS011;11478;51.094;7.030;2023-02-13T19:38:59;10.48;;;5.50;;
22622;SDS011;11478;51.094;7.030;2023-02-13T19:41:36;8.10;;;5.25;;
22622;SDS011;11478;51.094;7.030;2023-02-13T19:44:04;9.57;;;6.00;;
22622;SDS011;11478;51.094;7.030;2023-02-13T19:46:32;6.53;;;4.75;;
22622;SDS011;11478;51.094;7.030;2023-02-13T19:48:58;8.50;;;4.45;;
22622;SDS011;11478;51.094;7.030;2023-02-13T19:54:03;8.60;;;5.03;;
22622;SDS011;11478;51.094;7.030;2023-02-13T19:56:32;9.95;;;5.03;;
22622;SDS011;11478;51.094;7.030;2023-02-13T19:59:03;7.15;;;4.93;;
22622;SDS011;11478;51.094;7.030;2023-02-13T20:01:32;7.40;;;5.00;;
22622;SDS011;11478;51.094;7.030;2023-02-13T20:03:58;10.15;;;5.32;;
22622;SDS011;11478;51.094;7.030;2023-02-13T20:06:26;7.95;;;4.90;;
22622;SDS011;11478;51.094;7.030;2023-02-13T20:08:56;8.77;;;4.88;;
22622;SDS011;11478;51.094;7.030;2023-02-13T20:11:24;8.75;;;5.20;;
22622;SDS011;11478;51.094;7.030;2023-02-13T20:13:53;8.13;;;5.20;;
22622;SDS011;11478;51.094;7.030;2023-02-13T20:16:21;9.02;;;5.40;;